createdAt,value
2022-10-22T00:00:15.492Z,6.37
2022-10-22T00:02:43.322Z,6.31
2022-10-22T00:05:10.745Z,6.33
2022-10-22T00:07:38.580Z,6.10
2022-10-22T00:10:06.747Z,6.31
2022-10-22T00:12:34.219Z,6.29
2022-10-22T00:15:01.662Z,6.09
2022-10-22T00:17:29.012Z,5.96
2022-10-22T00:19:56.507Z,5.78
2022-10-22T00:22:24.937Z,5.86
2022-10-22T00:24:52.307Z,5.92
2022-10-22T00:27:19.608Z,5.91
2022-10-22T00:29:47.952Z,5.80
2022-10-22T00:32:15.528Z,5.99
2022-10-22T00:34:43.035Z,6.00
2022-10-22T00:37:10.580Z,5.78
2022-10-22T00:39:38.057Z,5.78
2022-10-22T00:42:05.833Z,5.85
2022-10-22T00:45:02.719Z,5.93
2022-10-22T00:47:37.475Z,5.83
2022-10-22T00:50:09.429Z,5.67
2022-10-22T00:52:37.837Z,5.40
2022-10-22T00:55:05.594Z,5.31
2022-10-22T00:57:34.092Z,5.07
2022-10-22T01:00:01.715Z,5.19
2022-10-22T01:02:29.100Z,5.31
2022-10-22T01:04:56.507Z,5.08
2022-10-22T01:07:24.147Z,5.27
2022-10-22T01:09:57.726Z,5.38
2022-10-22T01:12:27.754Z,5.19
2022-10-22T01:15:13.740Z,5.45
2022-10-22T01:17:43.833Z,5.52
2022-10-22T01:20:17.370Z,5.34
2022-10-22T01:22:45.003Z,5.09
2022-10-22T01:25:15.282Z,4.94
2022-10-22T01:27:53.354Z,5.01
2022-10-22T01:30:20.863Z,4.75
2022-10-22T01:32:59.486Z,5.11
2022-10-22T01:35:27.868Z,5.15
2022-10-22T01:37:58.836Z,5.18
2022-10-22T01:40:27.745Z,5.17
2022-10-22T01:42:57.106Z,5.15
2022-10-22T01:45:24.680Z,5.06
2022-10-22T01:48:29.415Z,5.36
2022-10-22T01:51:05.726Z,5.43
2022-10-22T01:53:33.491Z,4.85
2022-10-22T01:56:16.594Z,5.22
2022-10-22T01:58:58.824Z,5.24
2022-10-22T02:01:27.240Z,5.20
2022-10-22T02:04:03.804Z,5.29
2022-10-22T02:06:31.370Z,5.22
2022-10-22T02:08:58.812Z,5.21
2022-10-22T02:11:26.624Z,5.21
2022-10-22T02:13:55.030Z,5.29
2022-10-22T02:16:27.366Z,5.13
2022-10-22T02:18:55.990Z,4.94
2022-10-22T02:21:23.309Z,4.98
2022-10-22T02:23:50.659Z,4.94
2022-10-22T02:26:38.239Z,5.15
2022-10-22T02:29:07.064Z,5.36
2022-10-22T02:31:36.167Z,5.35
2022-10-22T02:34:05.512Z,5.21
2022-10-22T02:36:33.539Z,5.00
2022-10-22T02:39:00.835Z,4.90
2022-10-22T02:41:28.229Z,5.23
2022-10-22T02:43:56.058Z,5.49
2022-10-22T02:46:23.965Z,5.42
2022-10-22T02:48:51.255Z,5.47
2022-10-22T02:51:18.816Z,5.58
2022-10-22T02:53:46.425Z,5.46
2022-10-22T02:56:14.487Z,5.56
2022-10-22T02:58:41.975Z,5.50
2022-10-22T03:01:11.265Z,5.46
2022-10-22T03:03:41.291Z,5.23
2022-10-22T03:06:09.748Z,5.39
2022-10-22T03:08:37.587Z,5.29
2022-10-22T03:11:05.177Z,5.13
2022-10-22T03:13:33.926Z,5.23
2022-10-22T03:16:01.474Z,5.21
2022-10-22T03:18:29.101Z,5.39
2022-10-22T03:21:06.340Z,5.29
2022-10-22T03:23:33.764Z,5.42
2022-10-22T03:26:01.129Z,5.30
2022-10-22T03:28:28.664Z,5.21
2022-10-22T03:30:56.148Z,5.18
2022-10-22T03:33:23.467Z,5.30
2022-10-22T03:35:50.847Z,5.30
2022-10-22T03:38:18.220Z,5.13
2022-10-22T03:40:45.554Z,5.26
2022-10-22T03:43:12.981Z,5.31
2022-10-22T03:45:40.255Z,5.18
2022-10-22T03:48:07.601Z,5.22
2022-10-22T03:50:35.171Z,5.04
2022-10-22T03:53:02.742Z,4.79
2022-10-22T03:55:30.603Z,4.89
2022-10-22T03:57:57.940Z,4.79
2022-10-22T04:00:25.324Z,4.86
2022-10-22T04:02:53.228Z,4.95
2022-10-22T04:05:21.209Z,4.87
2022-10-22T04:07:48.514Z,5.18
2022-10-22T04:10:16.562Z,4.95
2022-10-22T04:12:47.379Z,5.00
2022-10-22T04:15:14.862Z,5.06
2022-10-22T04:17:43.149Z,5.07
2022-10-22T04:20:13.851Z,5.27
2022-10-22T04:22:42.730Z,5.07
2022-10-22T04:25:10.194Z,5.41
2022-10-22T04:27:37.722Z,5.24
2022-10-22T04:30:06.779Z,5.51
2022-10-22T04:32:34.211Z,5.76
2022-10-22T04:35:02.025Z,5.72
2022-10-22T04:37:29.575Z,5.69
2022-10-22T04:39:58.246Z,5.74
2022-10-22T04:42:26.188Z,5.76
2022-10-22T04:44:53.713Z,5.81
2022-10-22T04:47:21.198Z,5.91
2022-10-22T04:49:48.867Z,6.30
2022-10-22T04:52:16.336Z,6.03
2022-10-22T04:54:44.222Z,5.92
2022-10-22T04:57:11.759Z,6.33
2022-10-22T04:59:39.554Z,6.13
2022-10-22T05:02:07.050Z,6.05
2022-10-22T05:04:34.478Z,6.32
2022-10-22T05:07:01.849Z,6.42
2022-10-22T05:09:29.172Z,6.44
2022-10-22T05:11:56.652Z,6.51
2022-10-22T05:14:24.631Z,6.37
2022-10-22T05:16:53.685Z,6.48
2022-10-22T05:19:25.061Z,6.20
2022-10-22T05:21:56.682Z,6.55
2022-10-22T05:24:24.644Z,6.41
2022-10-22T05:26:52.366Z,6.69
2022-10-22T05:29:20.312Z,6.67
2022-10-22T05:31:47.610Z,6.80
2022-10-22T05:34:14.913Z,6.74
2022-10-22T05:36:42.325Z,6.47
2022-10-22T05:39:09.846Z,6.36
2022-10-22T05:41:37.813Z,6.47
2022-10-22T05:44:05.406Z,6.38
2022-10-22T05:46:36.367Z,6.73
2022-10-22T05:49:04.539Z,6.73
2022-10-22T05:51:32.814Z,6.76
2022-10-22T05:54:01.935Z,6.82
2022-10-22T05:56:30.113Z,6.80
2022-10-22T05:58:57.581Z,6.75
2022-10-22T06:01:25.984Z,7.04
2022-10-22T06:03:53.730Z,7.17
2022-10-22T06:06:29.333Z,7.08
2022-10-22T06:08:57.570Z,7.50
2022-10-22T06:11:24.989Z,7.63
2022-10-22T06:13:52.446Z,7.53
2022-10-22T06:16:20.498Z,7.99
2022-10-22T06:18:49.795Z,8.01
2022-10-22T06:21:17.119Z,8.27
2022-10-22T06:23:44.455Z,8.43
2022-10-22T06:26:12.051Z,8.21
2022-10-22T06:28:39.409Z,8.54
2022-10-22T06:31:08.788Z,8.60
2022-10-22T06:33:42.468Z,8.53
2022-10-22T06:36:11.101Z,8.78
2022-10-22T06:38:40.252Z,8.87
2022-10-22T06:41:08.863Z,8.77
2022-10-22T06:43:36.345Z,8.76
2022-10-22T06:46:05.504Z,8.95
2022-10-22T06:48:33.562Z,9.17
2022-10-22T06:51:01.650Z,9.20
2022-10-22T06:53:29.610Z,9.26
2022-10-22T06:55:56.882Z,9.17
2022-10-22T06:58:24.328Z,9.23
2022-10-22T07:01:00.483Z,9.35
2022-10-22T07:03:27.853Z,9.19
2022-10-22T07:05:55.461Z,8.99
2022-10-22T07:08:22.794Z,9.07
2022-10-22T07:10:50.401Z,9.34
2022-10-22T07:13:18.144Z,9.68
2022-10-22T07:15:45.484Z,9.97
2022-10-22T07:18:13.334Z,10.43
2022-10-22T07:20:43.189Z,10.93
2022-10-22T07:23:10.859Z,12.75
2022-10-22T07:25:38.203Z,15.26
2022-10-22T07:28:06.108Z,16.98
2022-10-22T07:30:34.351Z,17.93
2022-10-22T07:33:01.776Z,19.19
2022-10-22T07:35:29.262Z,19.49
2022-10-22T07:37:56.572Z,17.65
2022-10-22T07:40:24.042Z,20.05
2022-10-22T07:42:51.461Z,20.87
2022-10-22T07:45:18.753Z,19.64
2022-10-22T07:47:47.336Z,18.58
2022-10-22T07:50:14.942Z,17.54
2022-10-22T07:52:43.002Z,16.93
2022-10-22T07:55:10.695Z,16.71
2022-10-22T15:43:02.408Z,11.42
2022-10-22T15:45:30.456Z,11.47
2022-10-22T15:47:59.549Z,11.39
2022-10-22T15:50:27.141Z,11.40
2022-10-22T15:52:55.410Z,11.41
2022-10-22T15:55:22.816Z,11.35
2022-10-22T15:57:55.177Z,11.49
2022-10-22T16:00:25.163Z,11.36
2022-10-22T16:02:53.803Z,11.23
2022-10-22T16:05:21.151Z,11.29
2022-10-22T16:07:48.614Z,11.06
2022-10-22T16:10:16.291Z,11.15
2022-10-22T16:12:44.240Z,11.10
2022-10-22T16:15:12.006Z,11.19
2022-10-22T16:17:39.570Z,11.16
2022-10-22T16:20:09.477Z,11.06
2022-10-22T16:22:37.629Z,11.00
2022-10-22T16:25:05.264Z,11.00
2022-10-22T16:27:33.054Z,11.01
2022-10-22T16:30:00.410Z,10.93
2022-10-22T16:32:28.060Z,10.93
2022-10-22T16:34:55.492Z,11.02
2022-10-22T16:37:23.286Z,11.02
2022-10-22T16:39:50.735Z,10.96
2022-10-22T16:42:18.271Z,11.04
2022-10-22T16:44:45.692Z,10.98
2022-10-22T16:47:13.074Z,10.94
2022-10-22T16:49:40.800Z,10.91
2022-10-22T16:52:08.267Z,10.97
2022-10-22T16:54:36.237Z,10.90
2022-10-22T16:57:03.660Z,11.01
2022-10-22T16:59:31.143Z,10.97
2022-10-22T17:01:58.679Z,11.07
2022-10-22T17:04:26.458Z,10.91
2022-10-22T17:06:54.117Z,11.00
2022-10-22T17:09:25.551Z,10.99
2022-10-22T17:11:53.347Z,10.89
2022-10-22T17:14:20.941Z,10.91
2022-10-22T17:16:53.688Z,11.00
2022-10-22T17:19:24.196Z,10.92
2022-10-22T17:21:53.609Z,10.96
2022-10-22T17:24:21.014Z,10.96
2022-10-22T17:26:49.384Z,10.79
2022-10-22T17:29:17.005Z,10.95
2022-10-22T17:31:44.844Z,10.83
2022-10-22T17:34:15.070Z,10.87
2022-10-22T17:36:42.828Z,10.88
2022-10-22T17:39:11.186Z,10.74
2022-10-22T17:41:39.850Z,10.89
2022-10-22T17:44:09.475Z,10.92
2022-10-22T17:46:37.450Z,10.94
2022-10-22T17:49:07.080Z,10.84
2022-10-22T17:51:34.470Z,10.91
2022-10-22T17:54:03.572Z,10.88
2022-10-22T17:56:33.612Z,10.99
2022-10-22T17:59:01.609Z,10.88
2022-10-22T18:01:30.195Z,10.91
2022-10-22T18:04:02.766Z,10.83
2022-10-22T18:06:30.936Z,10.84
2022-10-22T18:08:59.060Z,10.64
2022-10-22T18:11:27.226Z,10.73
2022-10-22T18:13:56.373Z,10.63
2022-10-22T18:16:25.378Z,10.64
2022-10-22T18:18:53.799Z,10.60
2022-10-22T18:21:22.470Z,10.61
2022-10-22T18:23:50.248Z,10.53
2022-10-22T18:26:20.232Z,10.52
2022-10-22T18:28:50.269Z,10.48
2022-10-22T18:31:18.719Z,10.45
2022-10-22T18:33:46.137Z,10.48
2022-10-22T18:36:19.353Z,10.60
2022-10-22T18:38:53.603Z,10.54
2022-10-22T18:41:21.629Z,10.53
2022-10-22T18:43:52.341Z,10.47
2022-10-22T18:46:24.205Z,10.48
2022-10-22T18:48:52.953Z,10.41
2022-10-22T18:51:20.358Z,10.43
2022-10-22T18:53:59.051Z,10.35
2022-10-22T18:56:34.681Z,10.32
2022-10-22T18:59:02.327Z,10.35
2022-10-22T19:01:29.975Z,10.44
2022-10-22T19:03:59.487Z,10.28
2022-10-22T19:06:31.989Z,10.39
2022-10-22T19:09:00.970Z,10.41
2022-10-22T19:11:29.122Z,10.30
2022-10-22T19:13:57.283Z,10.26
2022-10-22T19:16:26.862Z,10.30
2022-10-22T19:19:02.457Z,10.25
2022-10-22T19:21:30.538Z,10.31
2022-10-22T19:23:59.385Z,10.37
2022-10-22T19:26:29.731Z,10.37
2022-10-22T19:29:08.424Z,10.40
2022-10-22T19:31:37.206Z,10.32
2022-10-22T19:34:06.951Z,10.41
2022-10-22T19:36:35.680Z,10.44
2022-10-22T19:39:03.483Z,10.44
2022-10-22T19:41:31.016Z,10.39
2022-10-22T19:43:58.903Z,10.34
2022-10-22T19:46:26.421Z,10.35
2022-10-22T19:48:54.355Z,10.36
2022-10-22T19:51:22.480Z,10.34
2022-10-22T19:53:50.345Z,10.32
2022-10-22T19:56:20.295Z,10.42
2022-10-22T19:58:48.628Z,10.37
2022-10-22T20:01:16.767Z,10.37
2022-10-22T20:03:44.279Z,10.26
2022-10-22T20:06:12.172Z,10.24
2022-10-22T20:08:39.725Z,10.28
2022-10-22T20:11:13.168Z,10.26
2022-10-22T20:13:40.645Z,10.19
2022-10-22T20:16:17.307Z,10.16
2022-10-22T20:18:45.084Z,10.26
2022-10-22T20:21:13.924Z,10.13
2022-10-22T20:23:44.201Z,10.14
2022-10-22T20:26:12.829Z,10.09
2022-10-22T20:28:40.786Z,10.00
2022-10-22T20:31:11.716Z,10.14
2022-10-22T20:33:39.685Z,10.02
2022-10-22T20:36:08.212Z,10.08
2022-10-22T20:41:08.990Z,10.09
2022-10-22T20:43:36.373Z,10.10
2022-10-22T20:46:04.053Z,10.12
2022-10-22T20:48:31.959Z,10.04
2022-10-22T20:50:59.849Z,10.00
2022-10-22T20:53:27.709Z,9.95
2022-10-22T20:55:57.120Z,10.03
2022-10-22T20:58:26.877Z,9.97
2022-10-22T21:00:54.575Z,9.95
2022-10-22T21:03:22.277Z,9.91
2022-10-22T21:05:49.873Z,10.01
2022-10-22T21:08:17.819Z,10.03
2022-10-22T21:10:46.550Z,10.08
2022-10-22T21:13:15.220Z,10.06
2022-10-22T21:15:42.967Z,9.88
2022-10-22T21:18:10.469Z,9.99
2022-10-22T21:20:40.943Z,10.09
2022-10-22T21:23:08.284Z,10.09
2022-10-22T21:25:39.497Z,9.92
2022-10-22T21:28:09.652Z,9.89
2022-10-22T21:30:37.214Z,9.96
2022-10-22T21:33:04.555Z,9.80
2022-10-22T21:35:33.779Z,9.79
2022-10-22T21:38:01.225Z,9.96
2022-10-22T21:40:28.834Z,9.91
2022-10-22T21:42:57.729Z,10.02
2022-10-22T21:45:25.095Z,9.97
2022-10-22T21:47:52.405Z,9.88
2022-10-22T21:50:19.823Z,9.69
2022-10-22T21:52:47.277Z,9.89
2022-10-22T21:55:14.768Z,9.79
2022-10-22T21:57:44.111Z,9.83
2022-10-22T22:00:11.925Z,9.95
2022-10-22T22:02:46.488Z,9.96
2022-10-22T22:05:13.932Z,9.91
2022-10-22T22:07:41.405Z,10.00
2022-10-22T22:10:13.139Z,9.96
2022-10-22T22:12:41.679Z,10.08
2022-10-22T22:15:09.896Z,10.12
2022-10-22T22:17:37.410Z,10.12
2022-10-22T22:20:10.177Z,10.07
2022-10-22T22:22:38.095Z,10.00
2022-10-22T22:25:05.497Z,10.05
2022-10-22T22:27:33.163Z,9.97
2022-10-22T22:30:00.621Z,10.12
2022-10-22T22:32:28.015Z,10.05
2022-10-22T22:34:55.315Z,10.00
2022-10-22T22:37:23.186Z,10.01
2022-10-22T22:39:51.072Z,10.14
2022-10-22T22:42:20.830Z,10.10
2022-10-22T22:44:48.282Z,9.98
2022-10-22T22:47:15.739Z,10.02
2022-10-22T22:49:43.537Z,10.05
2022-10-22T22:52:10.993Z,10.09
2022-10-22T22:54:38.787Z,10.12
2022-10-22T22:57:06.318Z,10.16
2022-10-22T22:59:34.051Z,10.18
2022-10-22T23:02:01.858Z,10.21
2022-10-22T23:04:30.291Z,10.28
2022-10-22T23:06:57.744Z,10.22
2022-10-22T23:09:25.541Z,10.16
2022-10-22T23:11:54.306Z,10.25
2022-10-22T23:14:22.115Z,10.32
2022-10-22T23:16:50.952Z,10.39
2022-10-22T23:19:22.174Z,10.25
2022-10-22T23:21:51.112Z,10.41
2022-10-22T23:24:19.750Z,10.55
2022-10-22T23:26:47.784Z,10.45
2022-10-22T23:29:26.427Z,10.57
2022-10-22T23:31:55.638Z,10.54
2022-10-22T23:34:24.263Z,10.64
2022-10-22T23:36:51.753Z,10.55
2022-10-22T23:39:20.201Z,10.66
2022-10-22T23:41:48.520Z,10.71
2022-10-22T23:44:16.237Z,10.71
2022-10-22T23:46:43.795Z,10.80
2022-10-22T23:49:11.883Z,10.65
2022-10-22T23:51:39.590Z,10.66
2022-10-22T23:54:13.952Z,10.80
2022-10-22T23:56:42.993Z,10.80
2022-10-22T23:59:10.525Z,10.69
